Time;durP1;ratioP1;P1;durP2;ratioP2;P2;SDS_P1;SDS_P2;PMS_P1;PMS_P2;Temp;Humidity;BMP_temperature;BMP_pressure;BME280_temperature;BME280_humidity;BME280_pressure;Samples;Min_cycle;Max_cycle;Signal;HPM_P1;HPM_P2
2022/03/13 00:01:16;;;;;;;;;;;11.10;76.20;;;;;;6250798;23;19927;-90
2022/03/13 00:03:46;;;;;;;;;;;11.10;76.30;;;;;;6201188;23;20041;-90
2022/03/13 00:06:14;;;;;;;;;;;11.10;76.30;;;;;;6224669;23;19919;-90
2022/03/13 00:08:41;;;;;;;;;;;11.00;76.30;;;;;;6252283;23;20404;-90
2022/03/13 00:11:15;;;;;;;;;;;11.00;76.20;;;;;;6228431;23;19903;-92
2022/03/13 00:14:01;;;;;;;;;;;11.00;76.20;;;;;;6225485;23;19990;-92
2022/03/13 00:16:29;;;;;;;;;;;11.10;76.30;;;;;;6214822;22;19888;-91
2022/03/13 00:18:56;;;;;;;;;;;11.00;76.20;;;;;;6248943;22;19903;-90
2022/03/13 00:21:26;;;;;;;;;;;11.00;76.10;;;;;;6249253;22;19927;-91
2022/03/13 00:24:02;;;;;;;;;;;11.00;76.20;;;;;;6222062;23;19919;-91
2022/03/13 00:26:46;;;;;;;;;;;11.00;76.20;;;;;;6232924;23;19935;-89
2022/03/13 00:29:41;;;;;;;;;;;11.00;76.20;;;;;;6229003;23;19904;-91
2022/03/13 00:35:09;;;;;;;;;;;10.90;76.20;;;;;;6253321;23;19915;-90
2022/03/13 00:40:53;;;;;;;;;;;10.90;76.30;;;;;;6237146;23;19903;-91
2022/03/13 00:43:27;;;;;;;;;;;10.90;76.30;;;;;;6223613;23;19973;-91
2022/03/13 00:46:01;;;;;;;;;;;10.80;76.30;;;;;;6224433;23;19908;-91
2022/03/13 00:48:27;;;;;;;;;;;10.90;76.40;;;;;;6249655;23;20056;-91
2022/03/13 00:51:03;;;;;;;;;;;10.90;76.40;;;;;;6223085;23;19908;-90
2022/03/13 00:53:31;;;;;;;;;;;10.90;76.40;;;;;;6224038;23;19915;-90
2022/03/13 00:55:59;;;;;;;;;;;10.90;76.40;;;;;;6210962;23;20322;-89
2022/03/13 00:58:25;;;;;;;;;;;11.00;76.50;;;;;;6223200;23;20222;-90
2022/03/13 01:01:04;;;;;;;;;;;;;;;;;;;;;
2022/03/13 01:03:44;;;;;;;;;;;11.00;76.50;;;;;;6250575;23;19994;-90
2022/03/13 01:06:12;;;;;;;;;;;11.00;76.60;;;;;;6223509;23;19908;-90
2022/03/13 01:08:46;;;;;;;;;;;11.00;76.60;;;;;;6223467;23;19908;-90
2022/03/13 01:14:52;;;;;;;;;;;;;;;;;;;;;
2022/03/13 01:17:31;;;;;;;;;;;11.00;76.80;;;;;;6258183;23;19911;-91
2022/03/13 01:20:10;;;;;;;;;;;10.90;76.80;;;;;;6243598;23;20292;-90
2022/03/13 01:22:48;;;;;;;;;;;;;;;;;;;;;
2022/03/13 01:25:34;;;;;;;;;;;10.90;76.90;;;;;;6258179;23;19980;-89
2022/03/13 01:28:02;;;;;;;;;;;10.90;76.90;;;;;;6223695;23;19903;-89
2022/03/13 01:30:30;;;;;;;;;;;10.90;77.00;;;;;;6192454;23;19927;-89
2022/03/13 01:33:16;;;;;;;;;;;10.90;77.10;;;;;;6237561;23;19904;-88
2022/03/13 01:35:49;;;;;;;;;;;10.90;77.00;;;;;;6223519;23;19939;-89
2022/03/13 01:38:22;;;;;;;;;;;10.80;77.00;;;;;;6223006;23;19904;-90
2022/03/13 01:40:54;;;;;;;;;;;10.90;77.10;;;;;;6223290;23;19914;-89
2022/03/13 01:43:19;;;;;;;;;;;10.80;77.00;;;;;;6220878;23;19908;-91
2022/03/13 01:46:04;;;;;;;;;;;10.80;77.00;;;;;;6223526;23;19907;-89
2022/03/13 01:48:40;;;;;;;;;;;10.80;76.90;;;;;;6223299;23;19954;-87
2022/03/13 01:51:10;;;;;;;;;;;10.80;76.90;;;;;;6225124;23;19911;-90
2022/03/13 01:53:39;;;;;;;;;;;10.80;77.60;;;;;;6227587;23;20302;-89
2022/03/13 01:56:14;;;;;;;;;;;10.80;76.90;;;;;;6249577;22;19891;-90
2022/03/13 01:58:58;;;;;;;;;;;;;;;;;;;;;
2022/03/13 02:04:41;;;;;;;;;;;10.60;76.80;;;;;;6250005;23;19927;-90
2022/03/13 02:07:09;;;;;;;;;;;10.60;77.00;;;;;;6231640;23;19910;-92
2022/03/13 02:09:37;;;;;;;;;;;10.50;77.10;;;;;;6224553;23;19951;-89
2022/03/13 02:12:20;;;;;;;;;;;10.50;77.30;;;;;;6224892;23;19934;-89
2022/03/13 02:14:46;;;;;;;;;;;10.40;77.40;;;;;;6224543;23;19911;-89
2022/03/13 02:17:33;;;;;;;;;;;10.40;77.60;;;;;;6200239;23;20218;-88
2022/03/13 02:20:22;;;;;;;;;;;10.30;77.60;;;;;;6250281;23;19907;-89
2022/03/13 02:23:07;;;;;;;;;;;10.30;77.90;;;;;;6223422;23;19915;-89
2022/03/13 02:25:50;;;;;;;;;;;10.20;78.10;;;;;;6223951;23;19907;-89
2022/03/13 02:28:38;;;;;;;;;;;10.10;78.20;;;;;;6223918;23;19911;-89
2022/03/13 02:31:34;;;;;;;;;;;10.10;78.90;;;;;;6223359;23;19986;-89
2022/03/13 02:34:24;;;;;;;;;;;10.10;78.50;;;;;;6223929;23;20341;-87
2022/03/13 02:36:53;;;;;;;;;;;10.00;78.60;;;;;;6249544;23;20369;-90
2022/03/13 02:39:35;;;;;;;;;;;10.00;78.70;;;;;;6223345;23;19911;-90
2022/03/13 02:42:05;;;;;;;;;;;10.00;78.70;;;;;;6199428;23;19930;-89
2022/03/13 02:44:39;;;;;;;;;;;10.00;78.70;;;;;;6223401;23;19915;-89
2022/03/13 02:47:11;;;;;;;;;;;10.00;78.80;;;;;;6222972;23;19910;-89
2022/03/13 02:49:44;;;;;;;;;;;9.90;79.50;;;;;;6198441;23;19907;-88
2022/03/13 02:52:41;;;;;;;;;;;9.90;78.90;;;;;;6223254;23;19999;-88
2022/03/13 02:55:06;;;;;;;;;;;9.90;78.90;;;;;;6220479;23;19958;-89
2022/03/13 03:00:47;;;;;;;;;;;9.80;79.00;;;;;;6225875;23;19978;-88
2022/03/13 03:03:22;;;;;;;;;;;9.80;79.00;;;;;;6222537;23;20342;-88
2022/03/13 03:05:59;;;;;;;;;;;9.80;79.00;;;;;;6249665;23;19943;-89
2022/03/13 03:08:37;;;;;;;;;;;9.80;79.10;;;;;;6249495;23;19986;-90
2022/03/13 03:11:06;;;;;;;;;;;9.80;79.30;;;;;;6223343;23;19911;-91
2022/03/13 03:16:33;;;;;;;;;;;9.70;79.20;;;;;;6228681;23;19908;-88
2022/03/13 03:19:17;;;;;;;;;;;9.70;79.20;;;;;;6223127;23;20282;-89
2022/03/13 03:21:48;;;;;;;;;;;9.70;79.30;;;;;;6223129;23;19903;-89
2022/03/13 03:24:40;;;;;;;;;;;9.70;79.30;;;;;;6198417;23;19916;-90
2022/03/13 03:27:18;;;;;;;;;;;;;;;;;;;;;
2022/03/13 03:29:53;;;;;;;;;;;9.70;79.20;;;;;;6250689;23;20337;-89
2022/03/13 03:32:26;;;;;;;;;;;9.60;79.20;;;;;;6226717;23;19976;-88
2022/03/13 03:34:57;;;;;;;;;;;9.60;79.20;;;;;;6225202;22;19896;-88
2022/03/13 03:37:36;;;;;;;;;;;;;;;;;;;;;
2022/03/13 03:40:05;;;;;;;;;;;9.60;79.20;;;;;;6275626;22;19891;-90
2022/03/13 03:42:39;;;;;;;;;;;9.60;79.20;;;;;;6243810;23;19908;-90
2022/03/13 03:45:24;;;;;;;;;;;9.50;79.30;;;;;;6199830;23;19918;-89
2022/03/13 03:48:02;;;;;;;;;;;;;;;;;;;;;
2022/03/13 03:50:40;;;;;;;;;;;9.50;79.20;;;;;;6250183;23;19982;-89
2022/03/13 03:53:13;;;;;;;;;;;9.50;79.30;;;;;;6200120;23;19907;-90
2022/03/13 03:56:17;;;;;;;;;;;9.50;79.30;;;;;;6200345;23;19974;-87
2022/03/13 03:59:06;;;;;;;;;;;9.50;79.30;;;;;;6218914;23;19923;-89
2022/03/13 04:01:54;;;;;;;;;;;9.50;79.30;;;;;;6226820;23;19958;-88
2022/03/13 04:04:30;;;;;;;;;;;9.50;79.30;;;;;;6214825;23;19928;-90
2022/03/13 04:07:23;;;;;;;;;;;9.50;79.30;;;;;;6198185;23;20281;-90
2022/03/13 04:09:59;;;;;;;;;;;;;;;;;;;;;
2022/03/13 04:12:28;;;;;;;;;;;9.50;79.30;;;;;;6249750;23;19978;-90
2022/03/13 04:15:12;;;;;;;;;;;9.50;79.30;;;;;;6223096;23;19904;-90
2022/03/13 04:17:38;;;;;;;;;;;9.50;79.30;;;;;;6200347;23;20234;-90
2022/03/13 04:20:06;;;;;;;;;;;9.50;79.20;;;;;;6224233;23;19904;-89
2022/03/13 04:22:45;;;;;;;;;;;9.50;79.20;;;;;;6224787;23;19935;-89
2022/03/13 04:25:14;;;;;;;;;;;9.50;79.10;;;;;;6232102;23;19918;-89
2022/03/13 04:27:53;;;;;;;;;;;9.50;79.70;;;;;;6239558;23;19903;-88
2022/03/13 04:30:32;;;;;;;;;;;9.50;79.00;;;;;;6237982;23;19982;-88
2022/03/13 04:33:08;;;;;;;;;;;9.50;79.00;;;;;;6234052;23;19919;-88
2022/03/13 04:35:49;;;;;;;;;;;9.50;78.90;;;;;;6251676;23;19915;-89
2022/03/13 04:38:15;;;;;;;;;;;9.50;78.80;;;;;;6223325;23;19911;-89
2022/03/13 04:41:07;;;;;;;;;;;9.50;78.70;;;;;;6223433;23;19903;-88
2022/03/13 04:43:58;;;;;;;;;;;9.50;78.70;;;;;;6201374;23;19966;-89
2022/03/13 04:46:31;;;;;;;;;;;9.50;78.60;;;;;;6219924;23;19908;-87
2022/03/13 04:49:23;;;;;;;;;;;9.50;78.50;;;;;;6222930;23;19982;-88
2022/03/13 04:51:50;;;;;;;;;;;9.50;78.40;;;;;;6212551;23;20226;-88
2022/03/13 04:54:27;;;;;;;;;;;9.50;78.30;;;;;;6249437;23;20393;-89
2022/03/13 04:57:10;;;;;;;;;;;9.50;78.00;;;;;;6222868;23;19970;-89
2022/03/13 04:59:52;;;;;;;;;;;;;;;;;;;;;
2022/03/13 05:02:27;;;;;;;;;;;9.40;77.10;;;;;;6249424;23;19986;-89
2022/03/13 05:04:53;;;;;;;;;;;9.40;77.20;;;;;;6223227;23;19908;-88
2022/03/13 05:07:21;;;;;;;;;;;9.50;77.10;;;;;;6224826;23;19904;-88
2022/03/13 05:09:52;;;;;;;;;;;9.40;77.00;;;;;;6242879;22;19915;-90
2022/03/13 05:12:27;;;;;;;;;;;9.40;77.00;;;;;;6248915;22;19911;-89
2022/03/13 05:17:50;;;;;;;;;;;9.40;76.80;;;;;;6264077;22;19914;-88
2022/03/13 05:20:40;;;;;;;;;;;9.40;76.80;;;;;;6231474;23;19910;-88
2022/03/13 05:23:14;;;;;;;;;;;9.40;76.50;;;;;;6201012;23;19963;-88
2022/03/13 05:25:41;;;;;;;;;;;9.40;76.30;;;;;;6222410;23;19978;-88
2022/03/13 05:28:21;;;;;;;;;;;9.40;75.70;;;;;;6221975;23;19954;-89
2022/03/13 05:30:59;;;;;;;;;;;;;;;;;;;;;
2022/03/13 05:33:36;;;;;;;;;;;9.40;75.60;;;;;;6249457;23;19975;-88
2022/03/13 05:36:22;;;;;;;;;;;9.40;75.60;;;;;;6222151;23;19908;-88
2022/03/13 05:38:48;;;;;;;;;;;9.40;75.50;;;;;;6221661;23;20215;-89
2022/03/13 05:41:22;;;;;;;;;;;9.40;75.40;;;;;;6221729;23;19911;-89
2022/03/13 05:44:02;;;;;;;;;;;9.40;75.40;;;;;;6197925;23;19916;-89
2022/03/13 05:46:39;;;;;;;;;;;9.40;75.40;;;;;;6199575;23;19915;-89
2022/03/13 05:49:05;;;;;;;;;;;9.40;75.10;;;;;;6222603;23;19903;-89
2022/03/13 05:51:40;;;;;;;;;;;9.40;74.90;;;;;;6221537;23;20306;-89
2022/03/13 05:54:08;;;;;;;;;;;9.40;74.90;;;;;;6222073;23;20381;-90
2022/03/13 05:56:34;;;;;;;;;;;9.40;74.60;;;;;;6221913;23;20278;-89
2022/03/13 05:59:12;;;;;;;;;;;;;;;;;;;;;
2022/03/13 06:01:47;;;;;;;;;;;9.30;73.90;;;;;;6248862;23;19987;-89
2022/03/13 06:04:39;;;;;;;;;;;9.40;74.00;;;;;;6222060;23;19914;-89
2022/03/13 06:07:13;;;;;;;;;;;9.40;74.00;;;;;;6222005;23;19908;-89
2022/03/13 06:09:41;;;;;;;;;;;9.40;74.00;;;;;;6222366;23;19911;-89
2022/03/13 06:12:10;;;;;;;;;;;9.40;73.90;;;;;;6222414;23;19904;-88
2022/03/13 06:14:37;;;;;;;;;;;9.40;73.90;;;;;;6222337;23;19910;-91
2022/03/13 06:17:13;;;;;;;;;;;;;;;;;;;;;
2022/03/13 06:19:44;;;;;;;;;;;9.40;73.90;;;;;;6248802;23;19987;-88
2022/03/13 06:22:12;;;;;;;;;;;9.40;73.90;;;;;;6221696;23;19939;-89
2022/03/13 06:24:41;;;;;;;;;;;9.40;74.00;;;;;;6222107;23;19912;-89
2022/03/13 06:27:30;;;;;;;;;;;9.40;73.70;;;;;;6221902;23;19911;-89
2022/03/13 06:29:55;;;;;;;;;;;9.40;73.50;;;;;;6247532;23;19915;-89
2022/03/13 06:32:28;;;;;;;;;;;9.40;73.50;;;;;;6220526;23;19915;-90
2022/03/13 06:34:56;;;;;;;;;;;9.30;73.10;;;;;;6222986;23;19912;-89
2022/03/13 06:37:24;;;;;;;;;;;9.40;73.00;;;;;;6198637;23;19927;-89
2022/03/13 06:40:09;;;;;;;;;;;9.40;73.10;;;;;;6223717;23;20326;-88
2022/03/13 06:42:42;;;;;;;;;;;9.40;73.30;;;;;;6224505;23;20393;-89
2022/03/13 06:45:13;;;;;;;;;;;9.40;72.90;;;;;;6234164;23;19906;-90
2022/03/13 06:47:52;;;;;;;;;;;9.40;72.30;;;;;;6226158;22;19892;-89
2022/03/13 06:50:18;;;;;;;;;;;9.30;71.80;;;;;;6249454;22;19911;-87
2022/03/13 06:52:54;;;;;;;;;;;9.40;71.70;;;;;;6250137;23;19907;-89
2022/03/13 06:55:21;;;;;;;;;;;9.40;71.50;;;;;;6215183;23;20382;-88
2022/03/13 06:57:47;;;;;;;;;;;9.40;71.10;;;;;;6224311;23;19904;-88
2022/03/13 07:00:16;;;;;;;;;;;9.40;71.20;;;;;;6250697;23;20234;-87
2022/03/13 07:02:44;;;;;;;;;;;9.40;70.40;;;;;;6224418;23;20243;-88
2022/03/13 07:05:14;;;;;;;;;;;9.40;70.60;;;;;;6224238;23;19912;-89
2022/03/13 07:07:52;;;;;;;;;;;9.40;70.70;;;;;;6199102;23;19915;-88
2022/03/13 07:10:21;;;;;;;;;;;9.40;70.00;;;;;;6224502;23;19951;-88
2022/03/13 07:12:49;;;;;;;;;;;9.40;69.70;;;;;;6250519;23;19931;-89
2022/03/13 07:15:18;;;;;;;;;;;9.40;69.60;;;;;;6223958;23;19911;-88
2022/03/13 07:17:47;;;;;;;;;;;9.40;69.40;;;;;;6223407;23;19904;-89
2022/03/13 07:20:21;;;;;;;;;;;9.30;69.40;;;;;;6197718;23;20337;-89
2022/03/13 07:22:51;;;;;;;;;;;9.30;69.60;;;;;;6224866;23;20413;-88
2022/03/13 07:25:19;;;;;;;;;;;9.30;69.90;;;;;;6200015;23;19963;-90
2022/03/13 07:27:45;;;;;;;;;;;9.30;70.10;;;;;;6224199;23;19910;-89
2022/03/13 07:30:14;;;;;;;;;;;9.30;70.30;;;;;;6226881;23;19904;-87
2022/03/13 07:32:47;;;;;;;;;;;9.40;70.50;;;;;;6242535;23;19923;-89
2022/03/13 07:35:19;;;;;;;;;;;9.40;70.50;;;;;;6249168;23;19896;-90
2022/03/13 07:37:52;;;;;;;;;;;9.40;70.60;;;;;;6249513;22;19899;-89
2022/03/13 07:40:17;;;;;;;;;;;9.40;70.50;;;;;;6248222;23;19908;-88
2022/03/13 07:42:43;;;;;;;;;;;9.40;70.10;;;;;;6237871;23;19907;-90
2022/03/13 07:45:15;;;;;;;;;;;9.40;70.20;;;;;;6225999;23;19907;-88
2022/03/13 07:47:40;;;;;;;;;;;9.50;70.00;;;;;;6223991;23;19904;-89
2022/03/13 07:50:09;;;;;;;;;;;9.50;69.50;;;;;;6223877;23;20365;-88
2022/03/13 07:52:35;;;;;;;;;;;9.50;69.00;;;;;;6223073;23;19911;-87
2022/03/13 07:55:01;;;;;;;;;;;9.50;69.20;;;;;;6223636;23;19904;-87
2022/03/13 07:57:45;;;;;;;;;;;9.50;69.50;;;;;;6223512;23;19903;-91
2022/03/13 08:00:23;;;;;;;;;;;9.50;69.20;;;;;;6199037;23;19958;-89
2022/03/13 08:02:48;;;;;;;;;;;9.60;69.40;;;;;;6200384;23;19920;-90
2022/03/13 08:05:32;;;;;;;;;;;9.60;69.50;;;;;;6223204;23;19975;-88
2022/03/13 08:08:18;;;;;;;;;;;9.60;69.60;;;;;;6200080;23;19947;-89
2022/03/13 08:11:03;;;;;;;;;;;9.60;69.20;;;;;;6224138;23;19904;-89
2022/03/13 08:13:55;;;;;;;;;;;9.60;68.70;;;;;;6223802;23;19911;-89
2022/03/13 08:16:48;;;;;;;;;;;9.70;68.50;;;;;;6225894;23;19911;-89
2022/03/13 08:22:37;;;;;;;;;;;9.70;68.70;;;;;;6240310;22;19892;-91
2022/03/13 08:25:07;;;;;;;;;;;9.80;68.10;;;;;;6238140;22;19911;-90
2022/03/13 08:27:48;;;;;;;;;;;9.70;68.30;;;;;;6249285;23;19896;-89
2022/03/13 08:30:44;;;;;;;;;;;;;;;;;;;;;
2022/03/13 08:33:26;;;;;;;;;;;9.80;68.10;;;;;;6238097;23;19990;-89
2022/03/13 08:42:05;;;;;;;;;;;9.90;66.60;;;;;;6238381;23;19903;-91
2022/03/13 08:48:33;;;;;;;;;;;;;;;;;;;;;
2022/03/13 08:57:58;;;;;;;;;;;10.00;66.00;;;;;;6248737;23;19931;-90
2022/03/13 09:00:43;;;;;;;;;;;10.00;66.40;;;;;;6191117;23;19958;-87
2022/03/13 09:03:24;;;;;;;;;;;10.10;66.20;;;;;;6196554;23;20310;-87
2022/03/13 09:09:29;;;;;;;;;;;;;;;;;;;;;
2022/03/13 09:15:28;;;;;;;;;;;;;;;;;;;;;
2022/03/13 09:18:13;;;;;;;;;;;;;;;;;;;;;
2022/03/13 09:20:55;;;;;;;;;;;10.30;63.50;;;;;;6223297;23;19978;-88
2022/03/13 09:23:23;;;;;;;;;;;10.30;63.10;;;;;;6219129;23;19950;-86
2022/03/13 09:26:08;;;;;;;;;;;;;;;;;;;;;
2022/03/13 09:28:41;;;;;;;;;;;10.40;63.20;;;;;;6224285;23;19982;-88
2022/03/13 09:31:15;;;;;;;;;;;10.40;63.10;;;;;;6195438;23;19954;-88
2022/03/13 09:33:46;;;;;;;;;;;10.50;64.40;;;;;;6219576;23;19915;-87
2022/03/13 09:36:17;;;;;;;;;;;10.50;62.50;;;;;;6195638;23;19911;-87
2022/03/13 09:38:55;;;;;;;;;;;10.60;62.30;;;;;;6212232;23;20031;-87
2022/03/13 09:41:45;;;;;;;;;;;10.60;62.80;;;;;;6221023;23;19903;-90
2022/03/13 09:44:28;;;;;;;;;;;10.80;62.30;;;;;;6209158;23;19911;-88
2022/03/13 09:46:57;;;;;;;;;;;10.90;62.70;;;;;;6194801;23;19930;-87
2022/03/13 09:49:53;;;;;;;;;;;;;;;;;;;;;
2022/03/13 10:01:17;;;;;;;;;;;;;;;;;;;;;
2022/03/13 10:03:51;;;;;;;;;;;11.30;62.00;;;;;;6272474;22;19923;-89
2022/03/13 10:06:19;;;;;;;;;;;11.40;62.10;;;;;;6222318;23;19891;-93
2022/03/13 10:15:12;;;;;;;;;;;11.60;62.30;;;;;;6172001;23;20319;-90
2022/03/13 10:21:18;;;;;;;;;;;;;;;;;;;;;
2022/03/13 10:24:15;;;;;;;;;;;;;;;;;;;;;
2022/03/13 10:27:09;;;;;;;;;;;12.00;60.60;;;;;;6250164;23;19981;-90
2022/03/13 10:30:03;;;;;;;;;;;12.00;60.20;;;;;;6244306;23;19950;-90
2022/03/13 10:36:05;;;;;;;;;;;12.10;61.10;;;;;;6073175;23;19906;-88
2022/03/13 10:38:48;;;;;;;;;;;12.10;61.30;;;;;;6226850;23;20336;-88
2022/03/13 10:41:20;;;;;;;;;;;12.20;61.60;;;;;;6229204;23;19907;-86
2022/03/13 10:44:04;;;;;;;;;;;12.20;61.90;;;;;;6232874;23;19917;-90
2022/03/13 10:46:53;;;;;;;;;;;12.30;61.90;;;;;;6233798;23;19926;-88
2022/03/13 10:56:00;;;;;;;;;;;12.60;61.90;;;;;;6227151;23;20002;-88
2022/03/13 10:59:02;;;;;;;;;;;12.60;60.60;;;;;;6223242;23;19903;-88
2022/03/13 11:02:41;;;;;;;;;;;12.70;61.30;;;;;;6185582;23;19915;-90
2022/03/13 11:08:26;;;;;;;;;;;12.90;62.50;;;;;;6199198;23;20318;-88
2022/03/13 11:11:06;;;;;;;;;;;13.00;62.80;;;;;;6247334;23;19904;-89
2022/03/13 11:14:09;;;;;;;;;;;;;;;;;;;;;
2022/03/13 11:17:41;;;;;;;;;;;;;;;;;;;;;
2022/03/13 11:26:37;;;;;;;;;;;13.50;62.80;;;;;;6217351;23;20322;-90
2022/03/13 11:32:54;;;;;;;;;;;13.70;63.30;;;;;;6250569;23;19990;-90
2022/03/13 11:38:25;;;;;;;;;;;13.90;64.40;;;;;;6222608;23;19921;-88
2022/03/13 11:41:12;;;;;;;;;;;;;;;;;;;;;
2022/03/13 11:43:38;;;;;;;;;;;14.00;63.20;;;;;;6223035;23;19907;-90
2022/03/13 11:46:21;;;;;;;;;;;;;;;;;;;;;
2022/03/13 11:52:53;;;;;;;;;;;14.10;63.80;;;;;;6162025;23;19990;-89
2022/03/13 11:55:33;;;;;;;;;;;14.20;64.00;;;;;;6218916;23;20330;-88
2022/03/13 11:58:37;;;;;;;;;;;;;;;;;;;;;
2022/03/13 12:01:40;;;;;;;;;;;;;;;;;;;;;
2022/03/13 12:08:31;;;;;;;;;;;;;;;;;;;;;
2022/03/13 12:16:45;;;;;;;;;;;14.70;64.20;;;;;;6038285;23;19906;-89
2022/03/13 12:22:53;;;;;;;;;;;;;;;;;;;;;
2022/03/13 12:29:18;;;;;;;;;;;;;;;;;;;;;
2022/03/13 12:38:17;;;;;;;;;;;15.00;63.40;;;;;;6060866;23;20316;-90
2022/03/13 12:40:54;;;;;;;;;;;15.10;63.60;;;;;;6047820;23;19906;-91
2022/03/13 12:44:07;;;;;;;;;;;;;;;;;;;;;
2022/03/13 12:46:56;;;;;;;;;;;15.20;63.80;;;;;;6067855;23;20294;-92
2022/03/13 12:49:50;;;;;;;;;;;;;;;;;;;;;
2022/03/13 12:52:40;;;;;;;;;;;;;;;;;;;;;
2022/03/13 12:58:26;;;;;;;;;;;;;;;;;;;;;
2022/03/13 13:07:35;;;;;;;;;;;;;;;;;;;;;
2022/03/13 13:13:54;;;;;;;;;;;;;;;;;;;;;
2022/03/13 13:16:23;;;;;;;;;;;15.60;62.90;;;;;;6218263;23;19999;-91
2022/03/13 13:22:30;;;;;;;;;;;;;;;;;;;;;
2022/03/13 13:25:35;;;;;;;;;;;;;;;;;;;;;
2022/03/13 13:31:16;;;;;;;;;;;15.70;62.70;;;;;;6244451;23;19904;-91
2022/03/13 13:40:37;;;;;;;;;;;;;;;;;;;;;
2022/03/13 14:02:31;;;;;;;;;;;;;;;;;;;;;
2022/03/13 14:15:30;;;;;;;;;;;;;;;;;;;;;
2022/03/13 14:24:42;;;;;;;;;;;;;;;;;;;;;
2022/03/13 14:31:14;;;;;;;;;;;;;;;;;;;;;
2022/03/13 14:50:01;;;;;;;;;;;;;;;;;;;;;
2022/03/13 15:08:27;;;;;;;;;;;;;;;;;;;;;
2022/03/13 15:14:33;;;;;;;;;;;;;;;;;;;;;
2022/03/13 15:28:28;;;;;;;;;;;;;;;;;;;;;
2022/03/13 15:37:50;;;;;;;;;;;;;;;;;;;;;
2022/03/13 15:44:01;;;;;;;;;;;;;;;;;;;;;
2022/03/13 15:54:06;;;;;;;;;;;;;;;;;;;;;
2022/03/13 15:59:47;;;;;;;;;;;;;;;;;;;;;
2022/03/13 16:02:44;;;;;;;;;;;15.70;62.10;;;;;;6032455;23;20336;-91
2022/03/13 16:05:45;;;;;;;;;;;;;;;;;;;;;
2022/03/13 16:08:22;;;;;;;;;;;15.80;62.20;;;;;;6168139;23;19983;-90
2022/03/13 16:10:52;;;;;;;;;;;15.90;62.30;;;;;;6201916;22;19986;-90
2022/03/13 16:16:31;;;;;;;;;;;;;;;;;;;;;
2022/03/13 16:18:59;;;;;;;;;;;16.10;62.30;;;;;;6254258;22;19986;-90
2022/03/13 16:22:08;;;;;;;;;;;16.00;62.30;;;;;;6215193;22;19911;-92
2022/03/13 16:25:21;;;;;;;;;;;;;;;;;;;;;
2022/03/13 16:34:27;;;;;;;;;;;;;;;;;;;;;
2022/03/13 16:40:40;;;;;;;;;;;;;;;;;;;;;
2022/03/13 16:46:26;;;;;;;;;;;;;;;;;;;;;
2022/03/13 16:54:45;;;;;;;;;;;15.50;63.80;;;;;;6247255;22;20313;-88
2022/03/13 16:57:36;;;;;;;;;;;15.40;63.80;;;;;;6252882;22;19990;-90
2022/03/13 17:00:34;;;;;;;;;;;15.40;63.80;;;;;;6254315;22;19904;-90
2022/03/13 17:06:02;;;;;;;;;;;15.30;64.00;;;;;;6158622;23;19896;-90
2022/03/13 17:15:28;;;;;;;;;;;;;;;;;;;;;
2022/03/13 17:18:17;;;;;;;;;;;;;;;;;;;;;
2022/03/13 17:21:17;;;;;;;;;;;;;;;;;;;;;
2022/03/13 17:24:18;;;;;;;;;;;;;;;;;;;;;
2022/03/13 17:26:50;;;;;;;;;;;14.90;64.60;;;;;;6263451;22;20002;-89
2022/03/13 17:33:02;;;;;;;;;;;14.80;64.70;;;;;;6256263;22;19903;-90
2022/03/13 17:41:56;;;;;;;;;;;;;;;;;;;;;
2022/03/13 17:50:53;;;;;;;;;;;;;;;;;;;;;
2022/03/13 17:56:54;;;;;;;;;;;;;;;;;;;;;
2022/03/13 18:02:36;;;;;;;;;;;14.30;65.80;;;;;;6236181;22;19907;-91
2022/03/13 18:08:12;;;;;;;;;;;14.30;66.00;;;;;;6257924;22;19911;-92
2022/03/13 18:10:50;;;;;;;;;;;14.20;66.00;;;;;;6231153;22;19914;-90
2022/03/13 18:13:52;;;;;;;;;;;;;;;;;;;;;
2022/03/13 18:16:26;;;;;;;;;;;14.20;66.20;;;;;;6287237;22;19943;-91
2022/03/13 18:19:12;;;;;;;;;;;14.20;66.20;;;;;;6259353;22;19919;-91
2022/03/13 18:21:43;;;;;;;;;;;14.20;66.30;;;;;;6259022;22;19910;-92
2022/03/13 18:24:38;;;;;;;;;;;14.10;66.30;;;;;;6258798;22;19942;-90
2022/03/13 18:27:37;;;;;;;;;;;14.10;66.40;;;;;;6254817;23;19943;-91
2022/03/13 18:30:29;;;;;;;;;;;;;;;;;;;;;
2022/03/13 18:33:23;;;;;;;;;;;14.00;66.60;;;;;;6231456;23;20301;-90
2022/03/13 18:36:21;;;;;;;;;;;14.00;66.70;;;;;;6229668;23;19919;-90
2022/03/13 18:39:02;;;;;;;;;;;14.00;66.70;;;;;;6212222;23;19914;-91
2022/03/13 18:41:47;;;;;;;;;;;14.00;66.70;;;;;;6226157;23;19911;-91
2022/03/13 18:53:30;;;;;;;;;;;13.90;66.80;;;;;;6264574;22;19898;-91
2022/03/13 18:59:06;;;;;;;;;;;13.90;67.00;;;;;;6263637;23;19938;-91
2022/03/13 19:01:53;;;;;;;;;;;13.90;67.00;;;;;;6211885;23;19907;-91
2022/03/13 19:07:26;;;;;;;;;;;13.80;67.10;;;;;;6256737;23;19895;-91
2022/03/13 19:10:03;;;;;;;;;;;13.80;67.20;;;;;;6230383;23;19999;-90
2022/03/13 19:12:36;;;;;;;;;;;13.80;67.30;;;;;;6226410;23;19904;-92
2022/03/13 19:15:34;;;;;;;;;;;;;;;;;;;;;
2022/03/13 19:18:11;;;;;;;;;;;;;;;;;;;;;
2022/03/13 19:20:42;;;;;;;;;;;13.80;67.30;;;;;;6233515;23;19928;-92
2022/03/13 19:23:34;;;;;;;;;;;13.80;67.30;;;;;;6229730;23;19991;-90
2022/03/13 19:35:54;;;;;;;;;;;13.70;67.70;;;;;;6157733;23;20370;-92
2022/03/13 19:41:59;;;;;;;;;;;;;;;;;;;;;
2022/03/13 19:44:42;;;;;;;;;;;13.70;68.20;;;;;;6278035;22;20002;-90
2022/03/13 19:47:26;;;;;;;;;;;;;;;;;;;;;
2022/03/13 19:49:52;;;;;;;;;;;13.70;68.60;;;;;;6281203;22;19986;-90
2022/03/13 19:52:51;;;;;;;;;;;;;;;;;;;;;
2022/03/13 19:58:14;;;;;;;;;;;13.60;68.90;;;;;;6281654;22;19950;-91
2022/03/13 20:00:45;;;;;;;;;;;13.60;69.00;;;;;;6254344;22;19949;-90
2022/03/13 20:03:21;;;;;;;;;;;;;;;;;;;;;
2022/03/13 20:06:18;;;;;;;;;;;;;;;;;;;;;
2022/03/13 20:12:06;;;;;;;;;;;13.50;69.40;;;;;;6264072;22;19907;-90
2022/03/13 20:14:45;;;;;;;;;;;;;;;;;;;;;
2022/03/13 20:17:17;;;;;;;;;;;13.50;69.40;;;;;;6281821;22;19974;-92
2022/03/13 20:20:10;;;;;;;;;;;13.60;69.40;;;;;;6254840;22;19908;-92
2022/03/13 20:22:54;;;;;;;;;;;;;;;;;;;;;
2022/03/13 20:28:28;;;;;;;;;;;13.70;69.30;;;;;;6261829;22;19961;-92
2022/03/13 20:30:59;;;;;;;;;;;13.70;69.40;;;;;;6260791;22;19990;-91
2022/03/13 20:33:38;;;;;;;;;;;13.70;69.40;;;;;;6278127;22;19907;-91
2022/03/13 20:36:25;;;;;;;;;;;;;;;;;;;;;
2022/03/13 20:39:16;;;;;;;;;;;13.70;69.60;;;;;;6282795;22;19898;-91
2022/03/13 20:44:42;;;;;;;;;;;;;;;;;;;;;
2022/03/13 20:47:26;;;;;;;;;;;;;;;;;;;;;
2022/03/13 20:50:01;;;;;;;;;;;13.70;69.90;;;;;;6303339;22;19918;-90
2022/03/13 20:52:32;;;;;;;;;;;13.70;70.00;;;;;;6266762;22;19910;-90
2022/03/13 21:01:13;;;;;;;;;;;13.60;70.50;;;;;;6280218;22;19977;-91
2022/03/13 21:06:57;;;;;;;;;;;13.60;71.00;;;;;;6251168;22;19957;-91
2022/03/13 21:09:36;;;;;;;;;;;;;;;;;;;;;
2022/03/13 21:12:24;;;;;;;;;;;;;;;;;;;;;
2022/03/13 21:15:26;;;;;;;;;;;13.50;71.40;;;;;;6280113;22;20007;-89
2022/03/13 21:21:09;;;;;;;;;;;;;;;;;;;;;
2022/03/13 21:23:44;;;;;;;;;;;13.50;71.60;;;;;;6279879;22;20362;-90
2022/03/13 21:26:29;;;;;;;;;;;;;;;;;;;;;
2022/03/13 21:28:55;;;;;;;;;;;13.40;71.90;;;;;;6279245;22;19989;-88
2022/03/13 21:31:25;;;;;;;;;;;13.40;72.10;;;;;;6252314;22;19910;-90
2022/03/13 21:33:54;;;;;;;;;;;13.30;72.20;;;;;;6252557;22;19908;-89
2022/03/13 21:36:25;;;;;;;;;;;13.40;72.30;;;;;;6227540;22;19911;-90
2022/03/13 21:38:55;;;;;;;;;;;13.30;72.40;;;;;;6252672;22;19907;-90
2022/03/13 21:41:41;;;;;;;;;;;13.30;72.30;;;;;;6234150;22;22652;-89
2022/03/13 21:44:08;;;;;;;;;;;13.30;72.50;;;;;;6279277;22;19907;-90
2022/03/13 21:47:01;;;;;;;;;;;13.30;72.50;;;;;;6253085;22;19986;-90
2022/03/13 21:49:34;;;;;;;;;;;13.30;72.70;;;;;;6252786;22;19903;-90
2022/03/13 21:52:23;;;;;;;;;;;13.20;72.90;;;;;;6252751;22;19927;-87
2022/03/13 21:54:52;;;;;;;;;;;13.20;73.10;;;;;;6252431;22;19903;-89
2022/03/13 21:57:38;;;;;;;;;;;13.20;73.20;;;;;;6227836;22;19911;-91
2022/03/13 22:00:04;;;;;;;;;;;13.10;73.20;;;;;;6252980;22;19958;-89
2022/03/13 22:02:43;;;;;;;;;;;13.10;73.30;;;;;;6227272;22;19912;-90
2022/03/13 22:05:17;;;;;;;;;;;13.10;73.50;;;;;;6229985;22;19918;-89
2022/03/13 22:10:35;;;;;;;;;;;13.00;73.80;;;;;;6260374;22;19903;-91
2022/03/13 22:13:11;;;;;;;;;;;13.00;73.70;;;;;;6282403;22;19910;-90
2022/03/13 22:18:45;;;;;;;;;;;13.00;73.80;;;;;;6277085;22;19988;-90
2022/03/13 22:21:29;;;;;;;;;;;;;;;;;;;;;
2022/03/13 22:27:19;;;;;;;;;;;12.90;74.10;;;;;;6306463;22;19926;-89
2022/03/13 22:32:44;;;;;;;;;;;12.90;74.50;;;;;;6274227;22;19910;-91
2022/03/13 22:36:20;;;;;;;;;;;12.90;74.70;;;;;;6255715;22;19907;-91
2022/03/13 22:38:19;;;;;;;;;;;12.90;74.80;;;;;;6269045;22;19982;-90
2022/03/13 22:43:41;;;;;;;;;;;12.80;75.20;;;;;;6270453;22;20306;-91
2022/03/13 22:49:31;;;;;;;;;;;12.80;75.40;;;;;;6281737;22;19910;-90
2022/03/13 22:52:22;;;;;;;;;;;12.80;75.30;;;;;;6254410;22;19915;-89
2022/03/13 22:55:04;;;;;;;;;;;12.80;75.50;;;;;;6243530;22;19910;-91
2022/03/13 22:58:02;;;;;;;;;;;;;;;;;;;;;
2022/03/13 23:06:53;;;;;;;;;;;12.70;75.90;;;;;;6145816;23;19995;-91
2022/03/13 23:09:35;;;;;;;;;;;12.70;75.90;;;;;;6132870;23;19904;-88
2022/03/13 23:18:11;;;;;;;;;;;;;;;;;;;;;
2022/03/13 23:20:39;;;;;;;;;;;12.70;76.30;;;;;;6280638;22;19978;-89
2022/03/13 23:23:05;;;;;;;;;;;12.70;76.40;;;;;;6253430;22;19957;-91
2022/03/13 23:28:46;;;;;;;;;;;12.70;76.70;;;;;;6240567;23;19919;-91
2022/03/13 23:31:16;;;;;;;;;;;12.70;76.70;;;;;;6248402;23;19908;-90
2022/03/13 23:33:56;;;;;;;;;;;12.70;76.80;;;;;;6248591;23;19910;-89